createdAt,value
2023-01-25T00:01:07.274Z,7.53
2023-01-25T00:06:54.341Z,6.80
2023-01-25T00:09:22.298Z,7.33
2023-01-25T00:11:49.429Z,8.33
2023-01-25T00:14:16.876Z,7.93
2023-01-25T00:16:44.001Z,8.07
2023-01-25T00:19:12.101Z,8.80
2023-01-25T00:21:39.914Z,8.70
2023-01-25T00:24:07.464Z,9.43
2023-01-25T00:26:35.541Z,9.50
2023-01-25T00:29:03.566Z,9.53
2023-01-25T00:31:51.071Z,9.73
2023-01-25T00:34:27.396Z,10.33
2023-01-25T00:37:14.364Z,8.87
2023-01-25T00:39:41.935Z,8.27
2023-01-25T00:42:12.685Z,8.07
2023-01-25T00:44:43.578Z,8.52
2023-01-25T00:47:14.450Z,8.63
2023-01-25T00:49:42.754Z,11.02
2023-01-25T00:52:10.538Z,9.57
2023-01-25T00:55:01.523Z,9.40
2023-01-25T00:58:20.032Z,9.30
2023-01-25T01:00:56.792Z,10.70
2023-01-25T01:03:24.652Z,10.70
2023-01-25T01:06:21.000Z,11.40
2023-01-25T01:08:47.944Z,11.40
2023-01-25T01:11:14.793Z,11.80
2023-01-25T01:13:41.651Z,11.47
2023-01-25T01:16:12.105Z,12.00
2023-01-25T01:18:42.133Z,12.70
2023-01-25T01:21:09.984Z,11.90
2023-01-25T01:23:37.165Z,12.00
2023-01-25T01:26:06.791Z,11.77
2023-01-25T01:28:35.662Z,12.93
2023-01-25T01:31:03.704Z,12.10
2023-01-25T01:33:31.029Z,13.00
2023-01-25T01:35:58.173Z,12.00
2023-01-25T01:38:25.270Z,12.30
2023-01-25T01:40:52.168Z,12.00
2023-01-25T01:43:33.395Z,12.07
2023-01-25T01:46:03.019Z,11.50
2023-01-25T01:48:51.311Z,11.30
2023-01-25T01:51:44.083Z,11.40
2023-01-25T01:54:42.179Z,10.73
2023-01-25T01:59:44.951Z,10.73
2023-01-25T02:02:18.205Z,10.40
2023-01-25T02:04:47.532Z,10.33
2023-01-25T02:07:24.513Z,9.67
2023-01-25T02:09:51.819Z,9.23
2023-01-25T02:12:20.900Z,9.73
2023-01-25T02:14:51.076Z,9.90
2023-01-25T02:17:27.635Z,9.47
2023-01-25T02:19:59.056Z,9.43
2023-01-25T02:22:35.608Z,9.70
2023-01-25T02:25:11.115Z,8.97
2023-01-25T02:27:50.603Z,8.33
2023-01-25T02:30:17.631Z,8.60
2023-01-25T02:32:44.867Z,8.20
2023-01-25T02:35:50.183Z,8.13
2023-01-25T02:38:21.194Z,8.03
2023-01-25T02:40:52.499Z,7.90
2023-01-25T02:43:19.911Z,7.47
2023-01-25T02:45:52.579Z,7.50
2023-01-25T02:48:19.738Z,6.83
2023-01-25T02:50:46.590Z,5.73
2023-01-25T02:53:13.461Z,5.03
2023-01-25T02:55:40.230Z,5.23
2023-01-25T02:58:07.079Z,6.13
2023-01-25T03:00:33.927Z,5.33
2023-01-25T03:03:00.859Z,5.43
2023-01-25T03:05:27.755Z,5.77
2023-01-25T03:07:54.645Z,6.20
2023-01-25T03:10:21.454Z,5.80
2023-01-25T03:12:48.294Z,4.53
2023-01-25T03:15:15.138Z,5.03
2023-01-25T03:17:41.884Z,4.50
2023-01-25T03:20:09.322Z,4.83
2023-01-25T03:22:36.120Z,4.63
2023-01-25T03:25:03.046Z,4.73
2023-01-25T03:27:30.737Z,4.70
2023-01-25T03:29:57.606Z,4.80
2023-01-25T03:32:24.465Z,4.57
2023-01-25T03:34:51.317Z,4.53
2023-01-25T03:37:18.120Z,4.57
2023-01-25T03:39:44.960Z,4.60
2023-01-25T03:42:11.778Z,4.50
2023-01-25T03:44:38.589Z,4.10
2023-01-25T03:47:05.522Z,4.87
2023-01-25T03:49:32.333Z,3.80
2023-01-25T03:51:59.169Z,4.40
2023-01-25T03:54:26.009Z,4.33
2023-01-25T03:56:52.801Z,4.30
2023-01-25T03:59:19.621Z,4.30
2023-01-25T04:01:46.429Z,4.83
2023-01-25T04:04:13.434Z,4.80
2023-01-25T04:06:40.411Z,4.67
2023-01-25T04:09:07.686Z,4.77
2023-01-25T04:11:34.567Z,4.90
2023-01-25T04:14:03.776Z,5.40
2023-01-25T04:16:31.536Z,5.37
2023-01-25T04:19:01.165Z,5.77
2023-01-25T04:21:27.955Z,5.40
2023-01-25T04:23:54.846Z,5.60
2023-01-25T04:26:21.661Z,5.40
2023-01-25T04:28:48.489Z,6.03
2023-01-25T04:31:15.354Z,5.97
2023-01-25T04:33:42.239Z,6.40
2023-01-25T04:36:09.138Z,6.43
2023-01-25T04:38:35.949Z,6.53
2023-01-25T04:41:05.015Z,6.00
2023-01-25T04:43:31.797Z,6.50
2023-01-25T04:46:00.775Z,6.33
2023-01-25T04:48:27.595Z,6.50
2023-01-25T04:50:54.357Z,7.07
2023-01-25T04:53:21.319Z,6.40
2023-01-25T04:55:48.731Z,7.23
2023-01-25T04:58:15.895Z,6.80
2023-01-25T05:00:42.780Z,7.57
2023-01-25T05:03:09.624Z,7.37
2023-01-25T05:05:36.441Z,7.70
2023-01-25T05:08:03.233Z,7.80
2023-01-25T05:10:30.030Z,8.33
2023-01-25T05:12:56.844Z,8.67
2023-01-25T05:15:23.712Z,9.33
2023-01-25T05:17:50.492Z,8.80
2023-01-25T05:20:17.453Z,8.57
2023-01-25T05:22:44.358Z,8.87
2023-01-25T05:25:31.185Z,9.07
2023-01-25T05:27:57.998Z,8.67
2023-01-25T05:30:24.795Z,9.10
2023-01-25T05:32:51.697Z,8.93
2023-01-25T05:35:18.756Z,9.13
2023-01-25T05:37:45.582Z,9.30
2023-01-25T05:40:12.699Z,9.53
2023-01-25T05:42:40.069Z,9.03
2023-01-25T05:45:08.539Z,9.00
2023-01-25T05:47:35.574Z,9.17
2023-01-25T05:50:02.597Z,9.90
2023-01-25T05:52:29.555Z,10.20
2023-01-25T05:54:56.378Z,11.07
2023-01-25T05:57:23.160Z,10.50
2023-01-25T05:59:49.955Z,10.27
2023-01-25T06:02:16.861Z,10.50
2023-01-25T06:04:43.796Z,11.70
2023-01-25T06:07:10.684Z,11.90
2023-01-25T06:09:40.623Z,10.40
2023-01-25T06:12:07.600Z,11.13
2023-01-25T06:14:34.372Z,11.63
2023-01-25T06:17:01.202Z,11.97
2023-01-25T06:19:28.205Z,12.93
2023-01-25T06:21:55.030Z,12.03
2023-01-25T06:24:21.964Z,12.00
2023-01-25T06:26:48.767Z,12.30
2023-01-25T06:29:15.566Z,12.60
2023-01-25T06:31:42.482Z,12.80
2023-01-25T06:34:09.787Z,12.70
2023-01-25T06:36:36.595Z,13.10
2023-01-25T06:39:04.135Z,13.37
2023-01-25T06:41:31.070Z,12.53
2023-01-25T06:43:57.910Z,13.10
2023-01-25T06:46:24.799Z,13.60
2023-01-25T06:48:52.199Z,13.87
2023-01-25T06:51:19.133Z,13.43
2023-01-25T06:53:47.498Z,14.20
2023-01-25T06:56:21.527Z,13.57
2023-01-25T06:58:49.773Z,13.90
2023-01-25T07:01:27.477Z,14.63
2023-01-25T07:03:57.117Z,14.70
2023-01-25T07:06:25.316Z,15.53
2023-01-25T07:08:52.539Z,15.17
2023-01-25T07:11:19.560Z,15.33
2023-01-25T07:13:47.394Z,16.13
2023-01-25T07:16:19.720Z,15.93
2023-01-25T07:18:53.100Z,16.17
2023-01-25T07:21:22.178Z,15.80
2023-01-25T07:23:49.943Z,17.07
2023-01-25T07:26:19.177Z,16.03
2023-01-25T07:28:47.341Z,15.77
2023-01-25T07:31:15.639Z,17.17
2023-01-25T07:33:42.902Z,16.50
2023-01-25T07:36:10.859Z,17.73
2023-01-25T07:38:37.984Z,16.77
2023-01-25T07:41:05.310Z,16.63
2023-01-25T07:43:32.621Z,18.33
2023-01-25T07:46:17.857Z,16.83
2023-01-25T07:48:52.641Z,16.37
2023-01-25T07:51:25.073Z,16.20
2023-01-25T07:54:03.965Z,17.10
2023-01-25T07:56:37.868Z,17.13
2023-01-25T07:59:05.342Z,17.60
2023-01-25T08:01:34.546Z,16.00
2023-01-25T08:04:02.645Z,17.70
2023-01-25T08:06:35.818Z,16.77
2023-01-25T08:09:20.015Z,17.30
2023-01-25T08:11:49.311Z,16.63
2023-01-25T08:14:16.327Z,17.80
2023-01-25T08:16:43.243Z,16.90
2023-01-25T08:19:11.386Z,17.20
2023-01-25T08:21:38.466Z,17.10
2023-01-25T08:24:07.163Z,17.77
2023-01-25T08:26:35.589Z,17.07
2023-01-25T08:29:02.982Z,17.13
2023-01-25T08:31:31.794Z,16.27
2023-01-25T08:33:59.730Z,16.87
2023-01-25T08:36:28.335Z,16.90
2023-01-25T08:38:58.065Z,16.73
2023-01-25T08:41:25.516Z,16.93
2023-01-25T08:43:54.239Z,18.43
2023-01-25T08:46:22.701Z,18.23
2023-01-25T08:48:54.774Z,17.57
2023-01-25T08:51:22.284Z,17.23
2023-01-25T08:53:49.145Z,17.90
2023-01-25T08:56:17.025Z,16.50
2023-01-25T08:58:48.507Z,17.57
2023-01-25T09:01:17.200Z,17.40
2023-01-25T09:03:47.269Z,18.50
2023-01-25T09:06:14.569Z,18.60
2023-01-25T09:08:42.064Z,18.20
2023-01-25T09:11:11.179Z,19.77
2023-01-25T09:13:38.388Z,20.10
2023-01-25T09:16:10.513Z,19.17
2023-01-25T09:18:38.939Z,19.90
2023-01-25T09:21:11.125Z,19.67
2023-01-25T09:23:50.559Z,20.17
2023-01-25T09:26:25.116Z,18.43
2023-01-25T09:28:54.352Z,19.07
2023-01-25T09:31:25.111Z,20.33
2023-01-25T09:33:53.455Z,19.50
2023-01-25T09:36:21.220Z,19.07
2023-01-25T09:38:48.707Z,20.37
2023-01-25T09:41:30.631Z,19.43
2023-01-25T09:44:14.220Z,19.77
2023-01-25T09:46:44.421Z,19.80
2023-01-25T09:49:24.850Z,19.30
2023-01-25T09:52:20.160Z,20.10
2023-01-25T09:54:48.267Z,20.07
2023-01-25T09:57:24.867Z,18.63
2023-01-25T09:59:53.722Z,19.97
2023-01-25T10:02:46.504Z,19.57
2023-01-25T10:05:22.834Z,20.90
2023-01-25T10:08:19.597Z,20.57
2023-01-25T10:10:48.909Z,20.50
2023-01-25T10:13:19.416Z,21.07
2023-01-25T10:16:20.954Z,21.47
2023-01-25T10:19:14.944Z,21.90
2023-01-25T10:21:47.155Z,20.63
2023-01-25T10:24:44.723Z,21.17
2023-01-25T10:27:30.794Z,20.17
2023-01-25T10:30:02.286Z,21.30
2023-01-25T10:32:35.825Z,21.60
2023-01-25T10:35:34.108Z,21.40
2023-01-25T10:38:28.211Z,21.07
2023-01-25T10:41:02.204Z,21.20
2023-01-25T10:43:29.416Z,20.90
2023-01-25T10:45:56.355Z,20.37
2023-01-25T10:48:34.265Z,21.00
2023-01-25T10:51:01.363Z,20.53
2023-01-25T10:53:36.789Z,22.30
2023-01-25T10:56:09.299Z,22.50
2023-01-25T10:58:43.623Z,21.57
2023-01-25T11:01:32.915Z,21.43
2023-01-25T11:04:01.763Z,21.77
2023-01-25T11:06:32.071Z,20.37
2023-01-25T11:08:59.087Z,21.17
2023-01-25T11:11:37.921Z,22.00
2023-01-25T11:14:18.553Z,20.30
2023-01-25T11:16:48.962Z,22.23
2023-01-25T11:19:39.200Z,22.37
2023-01-25T11:22:20.171Z,23.43
2023-01-25T11:24:47.625Z,22.63
2023-01-25T11:27:19.653Z,22.77
2023-01-25T11:30:08.659Z,21.73
2023-01-25T11:32:38.215Z,22.30
2023-01-25T11:35:16.988Z,22.70
2023-01-25T11:38:02.435Z,22.97
2023-01-25T11:40:41.982Z,23.47
2023-01-25T11:43:30.010Z,23.23
2023-01-25T11:46:30.357Z,22.57
2023-01-25T11:49:02.738Z,21.50
2023-01-25T11:51:38.229Z,24.03
2023-01-25T11:54:35.053Z,22.27
2023-01-25T11:57:29.296Z,22.67
2023-01-25T12:00:17.239Z,24.00
2023-01-25T12:02:59.106Z,22.77
2023-01-25T12:05:44.821Z,22.23
2023-01-25T12:08:34.215Z,22.60
2023-01-25T12:11:06.850Z,20.20
2023-01-25T12:13:43.042Z,20.90
2023-01-25T12:16:09.809Z,20.93
2023-01-25T12:19:09.578Z,20.00
2023-01-25T12:21:51.432Z,19.30
2023-01-25T12:24:46.453Z,18.93
2023-01-25T12:28:02.280Z,19.07
2023-01-25T12:31:18.485Z,19.57
2023-01-25T12:33:58.980Z,19.90
2023-01-25T12:36:40.702Z,19.40
2023-01-25T12:39:12.774Z,20.73
2023-01-25T12:41:57.428Z,20.87
2023-01-25T12:44:31.725Z,20.00
2023-01-25T12:47:05.673Z,20.33
2023-01-25T12:50:00.580Z,20.50
2023-01-25T12:52:42.447Z,20.83
2023-01-25T12:55:17.594Z,21.83
2023-01-25T12:57:54.587Z,21.77
2023-01-25T13:00:53.241Z,22.90
2023-01-25T13:03:47.143Z,22.03
2023-01-25T13:06:30.753Z,22.50
2023-01-25T13:09:16.017Z,21.03
2023-01-25T13:11:45.863Z,22.20
2023-01-25T13:14:15.746Z,21.57
2023-01-25T13:16:45.290Z,21.87
2023-01-25T13:19:30.524Z,22.13
2023-01-25T13:21:58.344Z,22.33
2023-01-25T13:24:27.492Z,22.93
2023-01-25T13:26:54.352Z,23.23
2023-01-25T13:29:39.706Z,22.10
2023-01-25T13:32:13.621Z,21.13
2023-01-25T13:34:44.276Z,19.90
2023-01-25T13:37:32.012Z,20.50
2023-01-25T13:40:26.203Z,21.93
2023-01-25T13:43:11.731Z,20.20
2023-01-25T13:45:41.303Z,20.53
2023-01-25T13:48:21.878Z,20.53
2023-01-25T13:50:59.327Z,20.03
2023-01-25T13:53:29.554Z,20.77
2023-01-25T13:55:58.393Z,19.83
2023-01-25T13:58:29.714Z,20.77
2023-01-25T14:01:06.472Z,20.53
2023-01-25T14:03:36.416Z,21.47
2023-01-25T14:06:04.452Z,21.20
2023-01-25T14:08:31.926Z,20.30
2023-01-25T14:10:59.085Z,22.20
2023-01-25T14:13:27.006Z,21.03
2023-01-25T14:16:02.083Z,20.47
2023-01-25T14:18:32.191Z,20.23
2023-01-25T14:21:11.728Z,21.60
2023-01-25T14:23:41.482Z,21.23
2023-01-25T14:26:26.287Z,21.07
2023-01-25T14:29:01.852Z,19.60
2023-01-25T14:31:35.421Z,19.93
2023-01-25T14:34:04.797Z,19.97
2023-01-25T14:36:36.902Z,20.37
2023-01-25T14:39:16.978Z,20.13
2023-01-25T14:41:59.324Z,20.10
2023-01-25T14:44:27.982Z,20.47
2023-01-25T14:47:19.500Z,20.77
2023-01-25T14:49:46.301Z,20.80
2023-01-25T14:52:16.384Z,20.63
2023-01-25T14:54:59.339Z,21.40
2023-01-25T14:57:38.067Z,21.10
2023-01-25T15:00:22.124Z,21.37
2023-01-25T15:02:56.457Z,21.60
2023-01-25T15:05:29.276Z,20.90
2023-01-25T15:08:16.022Z,20.90
2023-01-25T15:10:57.086Z,21.43
2023-01-25T15:13:27.843Z,22.03
2023-01-25T15:15:59.532Z,21.50
2023-01-25T15:18:46.078Z,21.30
2023-01-25T15:21:27.510Z,20.83
2023-01-25T15:23:56.340Z,20.17
2023-01-25T15:26:28.378Z,21.67
2023-01-25T15:28:57.867Z,21.50
2023-01-25T15:31:33.500Z,20.73
2023-01-25T15:34:01.742Z,21.88
2023-01-25T15:36:29.776Z,22.07
2023-01-25T15:38:59.786Z,21.67
2023-01-25T15:41:26.636Z,21.57
2023-01-25T15:43:53.581Z,22.10
2023-01-25T15:46:24.111Z,21.80
2023-01-25T15:48:51.936Z,21.60
2023-01-25T15:51:19.336Z,21.90
2023-01-25T15:53:47.080Z,21.17
2023-01-25T15:56:17.928Z,21.90
2023-01-25T15:58:48.444Z,22.23
2023-01-25T16:01:15.298Z,21.10
2023-01-25T16:03:42.150Z,22.70
2023-01-25T16:06:20.856Z,23.40
2023-01-25T16:08:47.871Z,23.83
2023-01-25T16:11:14.706Z,22.30
2023-01-25T16:13:41.534Z,22.77
2023-01-25T16:16:27.117Z,23.10
2023-01-25T16:18:53.985Z,21.37
2023-01-25T16:21:20.783Z,22.50
2023-01-25T16:23:47.754Z,22.63
2023-01-25T16:26:18.868Z,22.90
2023-01-25T16:28:45.621Z,23.17
2023-01-25T16:31:30.806Z,22.63
2023-01-25T16:33:58.769Z,21.90
2023-01-25T16:36:25.962Z,21.63
2023-01-25T16:38:52.918Z,21.90
2023-01-25T16:41:19.927Z,22.40
2023-01-25T16:43:48.627Z,22.90
2023-01-25T16:46:21.917Z,21.93
2023-01-25T16:48:51.028Z,22.47
2023-01-25T16:51:19.820Z,21.70
2023-01-25T16:53:48.142Z,22.97
2023-01-25T16:56:28.840Z,23.97
2023-01-25T16:58:59.957Z,22.93
2023-01-25T17:01:27.650Z,23.13
2023-01-25T17:03:56.018Z,23.33
2023-01-25T17:06:28.936Z,23.33
2023-01-25T17:08:57.933Z,23.57
2023-01-25T17:11:25.543Z,22.63
2023-01-25T17:13:55.129Z,22.03
2023-01-25T17:16:23.598Z,23.03
2023-01-25T17:19:05.783Z,22.27
2023-01-25T17:21:34.170Z,21.20
2023-01-25T17:24:02.525Z,23.37
2023-01-25T17:26:31.252Z,22.67
2023-01-25T17:29:02.285Z,21.50
2023-01-25T17:31:34.936Z,21.90
2023-01-25T17:34:04.719Z,22.60
2023-01-25T17:36:31.704Z,22.23
2023-01-25T17:39:04.937Z,21.60
2023-01-25T17:41:32.503Z,22.73
2023-01-25T17:44:01.075Z,22.60
2023-01-25T17:46:32.857Z,22.90
2023-01-25T17:49:02.162Z,23.57
2023-01-25T17:51:29.378Z,25.20
2023-01-25T17:53:57.227Z,23.33
2023-01-25T17:56:24.220Z,23.20
2023-01-25T17:58:51.100Z,23.10
2023-01-25T18:01:20.849Z,24.37
2023-01-25T18:03:49.130Z,21.30
2023-01-25T18:06:18.564Z,21.33
2023-01-25T18:08:48.491Z,22.23
2023-01-25T18:11:19.001Z,21.40
2023-01-25T18:13:48.711Z,22.93
2023-01-25T18:16:17.251Z,22.73
2023-01-25T18:18:45.688Z,22.23
2023-01-25T18:21:22.159Z,22.60
2023-01-25T18:23:49.554Z,22.20
2023-01-25T18:26:22.314Z,23.63
2023-01-25T18:28:51.896Z,22.03
2023-01-25T18:31:19.230Z,21.87
2023-01-25T18:33:46.155Z,21.40
2023-01-25T18:36:17.239Z,22.63
2023-01-25T18:38:44.618Z,23.07
2023-01-25T18:41:11.898Z,22.90
2023-01-25T18:43:38.748Z,23.17
2023-01-25T18:46:05.619Z,23.33
2023-01-25T18:48:32.574Z,22.97
2023-01-25T18:51:11.328Z,23.47
2023-01-25T18:53:40.050Z,22.17
2023-01-25T18:56:07.912Z,22.23
2023-01-25T18:58:36.550Z,23.00
2023-01-25T19:01:06.245Z,22.87
2023-01-25T19:03:33.277Z,22.03
2023-01-25T19:06:00.242Z,22.57
2023-01-25T19:08:28.408Z,23.30
2023-01-25T19:11:03.282Z,22.27
2023-01-25T19:13:32.685Z,21.93
2023-01-25T19:16:01.362Z,22.63
2023-01-25T19:18:37.025Z,21.50
2023-01-25T19:21:08.954Z,20.13
2023-01-25T19:23:37.820Z,20.60
2023-01-25T19:26:06.378Z,21.37
2023-01-25T19:28:34.871Z,19.93
2023-01-25T19:31:09.981Z,20.63
2023-01-25T19:33:37.653Z,19.53
2023-01-25T19:36:06.679Z,21.57
2023-01-25T19:38:38.234Z,20.47
2023-01-25T19:41:05.932Z,19.83
2023-01-25T19:43:32.896Z,20.30
2023-01-25T19:46:11.821Z,20.27
2023-01-25T19:48:40.313Z,18.47
2023-01-25T19:51:19.825Z,19.53
2023-01-25T19:53:52.167Z,20.43
2023-01-25T19:56:19.138Z,20.27
2023-01-25T19:58:47.240Z,20.10
2023-01-25T20:01:22.798Z,21.67
2023-01-25T20:03:50.416Z,19.57
2023-01-25T20:06:19.236Z,19.60
2023-01-25T20:08:47.738Z,20.53
2023-01-25T20:11:19.517Z,19.30
2023-01-25T20:13:47.399Z,20.70
2023-01-25T20:16:17.184Z,20.07
2023-01-25T20:18:45.226Z,19.87
2023-01-25T20:21:14.630Z,20.17
2023-01-25T20:23:44.635Z,21.27
2023-01-25T20:26:17.812Z,19.63
2023-01-25T20:28:47.420Z,19.93
2023-01-25T20:31:31.035Z,21.53
2023-01-25T20:34:00.450Z,19.97
2023-01-25T20:36:30.759Z,20.93
2023-01-25T20:38:58.180Z,18.57
2023-01-25T20:41:25.909Z,19.80
2023-01-25T20:43:58.056Z,19.07
2023-01-25T20:46:25.345Z,20.87
2023-01-25T20:48:53.716Z,20.37
2023-01-25T20:51:21.652Z,19.63
2023-01-25T20:53:50.165Z,20.50
2023-01-25T20:56:18.695Z,19.53
2023-01-25T20:58:50.712Z,21.03
2023-01-25T21:01:23.357Z,21.07
2023-01-25T21:03:51.195Z,19.87
2023-01-25T21:06:19.428Z,20.13
2023-01-25T21:08:46.249Z,20.67
2023-01-25T21:11:13.521Z,19.20
2023-01-25T21:13:40.504Z,20.47
2023-01-25T21:16:12.862Z,19.13
2023-01-25T21:18:44.801Z,20.43
2023-01-25T21:21:15.972Z,20.47
2023-01-25T21:23:46.198Z,19.87
2023-01-25T21:26:20.883Z,19.83
2023-01-25T21:28:48.805Z,19.20
2023-01-25T21:31:21.573Z,18.70
2023-01-25T21:33:48.768Z,19.40
2023-01-25T21:36:17.360Z,19.83
2023-01-25T21:38:46.319Z,20.63
2023-01-25T21:41:19.998Z,20.00
2023-01-25T21:44:06.121Z,19.70
2023-01-25T21:46:33.349Z,20.33
2023-01-25T21:49:29.879Z,20.43
2023-01-25T21:52:00.363Z,21.60
2023-01-25T21:54:30.002Z,22.27
2023-01-25T21:56:59.064Z,23.90
2023-01-25T21:59:26.876Z,23.80
2023-01-25T22:01:54.694Z,23.57
2023-01-25T22:04:22.846Z,23.07
2023-01-25T22:06:50.595Z,24.00
2023-01-25T22:09:18.086Z,24.00
2023-01-25T22:11:48.319Z,25.07
2023-01-25T22:14:15.490Z,24.30
2023-01-25T22:16:42.282Z,24.23
2023-01-25T22:19:09.254Z,23.57
2023-01-25T22:21:36.159Z,23.20
2023-01-25T22:24:05.286Z,25.17
2023-01-25T22:27:07.109Z,23.57
2023-01-25T22:29:34.176Z,23.67
2023-01-25T22:32:02.229Z,23.87
2023-01-25T22:34:29.196Z,24.10
2023-01-25T22:36:55.982Z,23.43
2023-01-25T22:39:22.762Z,23.70
2023-01-25T22:41:49.682Z,23.50
2023-01-25T22:44:16.706Z,24.80
2023-01-25T22:46:43.588Z,23.77
2023-01-25T22:49:10.511Z,24.10
2023-01-25T22:51:37.367Z,23.67
2023-01-25T22:54:05.216Z,23.97
2023-01-25T22:56:33.320Z,23.10
2023-01-25T22:59:01.173Z,23.33
2023-01-25T23:01:30.817Z,23.37
2023-01-25T23:03:58.428Z,24.00
2023-01-25T23:06:31.302Z,24.90
2023-01-25T23:09:03.471Z,23.73
2023-01-25T23:11:35.388Z,23.30
2023-01-25T23:14:22.054Z,23.33
2023-01-25T23:16:48.891Z,23.77
2023-01-25T23:19:19.727Z,22.77
2023-01-25T23:21:46.674Z,23.50
2023-01-25T23:24:13.588Z,23.10
2023-01-25T23:26:46.380Z,25.13
2023-01-25T23:29:13.799Z,23.60
2023-01-25T23:31:40.737Z,23.53
2023-01-25T23:34:10.311Z,23.17
2023-01-25T23:36:38.927Z,22.60
2023-01-25T23:39:06.261Z,22.73
2023-01-25T23:41:33.717Z,22.80
2023-01-25T23:44:01.859Z,22.90
2023-01-25T23:46:30.450Z,23.93
2023-01-25T23:48:57.404Z,23.80
2023-01-25T23:51:24.445Z,24.20
2023-01-25T23:53:53.460Z,23.03
2023-01-25T23:56:21.952Z,23.07
2023-01-25T23:58:49.419Z,25.20
